createdAt,value
2022-10-19T00:00:03.201Z,2.20
2022-10-19T00:02:33.861Z,1.90
2022-10-19T00:05:04.021Z,1.88
2022-10-19T00:07:34.502Z,2.78
2022-10-19T00:10:05.375Z,1.80
2022-10-19T00:12:35.818Z,1.88
2022-10-19T00:15:06.720Z,2.00
2022-10-19T00:17:38.750Z,1.80
2022-10-19T00:20:10.898Z,2.00
2022-10-19T00:22:41.141Z,2.22
2022-10-19T00:25:11.703Z,1.75
2022-10-19T00:27:41.958Z,1.60
2022-10-19T00:30:12.805Z,1.50
2022-10-19T00:32:43.030Z,1.55
2022-10-19T00:35:13.223Z,0.60
2022-10-19T00:37:43.892Z,1.35
2022-10-19T00:40:14.795Z,1.55
2022-10-19T00:42:45.465Z,1.17
2022-10-19T00:45:20.270Z,1.02
2022-10-19T00:47:51.751Z,1.10
2022-10-19T00:50:22.082Z,1.25
2022-10-19T00:52:52.583Z,1.30
2022-10-19T00:55:23.047Z,1.10
2022-10-19T00:57:53.342Z,1.52
2022-10-19T01:00:23.691Z,1.40
2022-10-19T01:02:53.934Z,1.20
2022-10-19T01:05:24.688Z,1.42
2022-10-19T01:07:55.968Z,1.60
2022-10-19T01:10:43.638Z,1.40
2022-10-19T01:13:56.296Z,1.58
2022-10-19T01:16:40.416Z,1.67
2022-10-19T01:19:39.123Z,1.40
2022-10-19T01:22:29.202Z,1.65
2022-10-19T01:25:17.675Z,1.42
2022-10-19T01:28:03.470Z,1.38
2022-10-19T01:31:15.508Z,1.60
2022-10-19T01:34:19.310Z,1.85
2022-10-19T01:37:21.755Z,1.40
2022-10-19T01:40:24.324Z,1.60
2022-10-19T01:43:26.032Z,1.70
2022-10-19T01:46:09.261Z,1.20
2022-10-19T01:48:43.599Z,1.17
2022-10-19T01:51:25.301Z,1.38
2022-10-19T01:54:00.995Z,1.30
2022-10-19T01:56:33.629Z,1.10
2022-10-19T01:59:10.414Z,1.20
2022-10-19T02:01:46.108Z,0.98
2022-10-19T02:04:21.731Z,1.13
2022-10-19T02:06:55.305Z,0.80
2022-10-19T02:09:25.903Z,0.85
2022-10-19T02:12:02.438Z,0.85
2022-10-19T02:17:27.732Z,0.80
2022-10-19T02:19:58.927Z,1.08
2022-10-19T02:22:30.630Z,1.20
2022-10-19T02:25:01.303Z,1.10
2022-10-19T02:27:31.948Z,1.15
2022-10-19T02:30:03.790Z,0.70
2022-10-19T02:32:36.175Z,0.80
2022-10-19T02:35:08.527Z,0.60
2022-10-19T02:37:40.597Z,0.80
2022-10-19T02:40:13.887Z,0.90
2022-10-19T02:42:56.322Z,1.02
2022-10-19T02:45:38.717Z,1.25
2022-10-19T02:48:20.919Z,0.95
2022-10-19T02:50:51.671Z,1.13
2022-10-19T02:53:22.620Z,0.65
2022-10-19T02:55:55.386Z,1.23
2022-10-19T02:58:26.010Z,0.70
2022-10-19T03:00:57.278Z,0.63
2022-10-19T03:03:27.512Z,0.60
2022-10-19T03:05:58.935Z,0.70
2022-10-19T03:08:29.110Z,0.85
2022-10-19T03:11:01.729Z,0.75
2022-10-19T03:13:32.290Z,0.60
2022-10-19T03:16:12.659Z,0.47
2022-10-19T03:18:42.988Z,0.60
2022-10-19T03:21:16.521Z,0.73
2022-10-19T03:23:46.848Z,0.63
2022-10-19T03:26:19.708Z,0.70
2022-10-19T03:28:51.309Z,0.60
2022-10-19T03:31:23.608Z,0.75
2022-10-19T03:33:53.802Z,0.93
2022-10-19T03:36:25.965Z,1.10
2022-10-19T03:38:59.183Z,0.95
2022-10-19T03:41:34.474Z,1.10
2022-10-19T03:44:07.520Z,1.33
2022-10-19T03:46:38.901Z,1.35
2022-10-19T03:49:11.340Z,1.20
2022-10-19T03:51:43.478Z,1.20
2022-10-19T03:54:20.665Z,1.10
2022-10-19T03:56:54.447Z,1.42
2022-10-19T03:59:26.407Z,0.98
2022-10-19T04:01:57.481Z,1.30
2022-10-19T04:04:29.632Z,1.23
2022-10-19T04:07:00.352Z,1.20
2022-10-19T04:09:30.909Z,1.20
2022-10-19T04:12:03.074Z,1.00
2022-10-19T04:14:52.518Z,1.27
2022-10-19T04:17:24.720Z,1.10
2022-10-19T04:19:55.318Z,1.60
2022-10-19T04:22:27.491Z,1.20
2022-10-19T04:24:59.026Z,1.55
2022-10-19T04:27:29.718Z,1.00
2022-10-19T04:30:01.849Z,1.40
2022-10-19T04:32:32.413Z,1.40
2022-10-19T04:35:04.602Z,1.13
2022-10-19T04:37:36.848Z,1.05
2022-10-19T04:40:14.157Z,1.10
2022-10-19T04:42:46.603Z,1.60
2022-10-19T04:45:17.173Z,1.20
2022-10-19T04:47:49.040Z,1.20
2022-10-19T04:50:20.889Z,1.27
2022-10-19T04:52:52.734Z,1.00
2022-10-19T04:55:23.734Z,1.08
2022-10-19T04:57:54.308Z,1.10
2022-10-19T05:00:24.968Z,1.20
2022-10-19T05:02:55.634Z,1.10
2022-10-19T05:05:27.660Z,1.10
2022-10-19T05:08:00.226Z,1.00
2022-10-19T05:10:32.375Z,1.10
2022-10-19T05:13:04.715Z,1.30
2022-10-19T05:15:37.181Z,1.25
2022-10-19T05:18:07.801Z,1.10
2022-10-19T05:20:40.471Z,1.20
2022-10-19T05:23:12.075Z,1.50
2022-10-19T05:25:42.674Z,1.00
2022-10-19T05:28:13.463Z,1.20
2022-10-19T05:30:48.840Z,1.20
2022-10-19T05:33:19.672Z,1.30
2022-10-19T05:35:50.234Z,1.00
2022-10-19T05:38:20.477Z,1.05
2022-10-19T05:40:53.684Z,1.20
2022-10-19T05:43:24.936Z,1.15
2022-10-19T05:45:56.504Z,1.45
2022-10-19T05:48:27.986Z,1.00
2022-10-19T05:51:00.178Z,0.93
2022-10-19T05:53:33.158Z,0.88
2022-10-19T05:56:03.846Z,1.00
2022-10-19T05:58:35.607Z,0.90
2022-10-19T06:01:08.464Z,0.90
2022-10-19T06:03:40.129Z,1.08
2022-10-19T06:06:12.122Z,0.82
2022-10-19T06:08:43.240Z,0.80
2022-10-19T06:25:18.112Z,0.90
2022-10-19T06:31:21.211Z,0.90
2022-10-19T06:33:54.840Z,0.80
2022-10-19T06:36:29.186Z,0.98
2022-10-19T06:39:02.700Z,0.80
2022-10-19T06:41:35.688Z,1.05
2022-10-19T06:44:06.309Z,1.05
2022-10-19T06:46:37.038Z,3.08
2022-10-19T06:49:07.677Z,1.58
2022-10-19T06:51:39.541Z,1.10
2022-10-19T06:54:10.526Z,1.10
2022-10-19T06:56:41.214Z,1.55
2022-10-19T06:59:12.223Z,1.60
2022-10-19T07:01:43.875Z,1.13
2022-10-19T07:04:14.881Z,1.42
2022-10-19T07:06:46.970Z,1.33
2022-10-19T07:09:17.955Z,1.45
2022-10-19T07:11:49.844Z,1.10
2022-10-19T07:14:20.603Z,1.42
2022-10-19T07:16:54.482Z,1.25
2022-10-19T07:19:32.266Z,1.30
2022-10-19T07:22:04.091Z,1.10
2022-10-19T07:24:36.348Z,1.35
2022-10-19T07:27:09.067Z,1.60
2022-10-19T07:29:40.609Z,1.40
2022-10-19T07:32:11.492Z,1.25
2022-10-19T07:34:43.052Z,1.63
2022-10-19T07:37:14.675Z,1.33
2022-10-19T07:39:45.301Z,1.42
2022-10-19T07:42:15.887Z,1.15
2022-10-19T07:44:46.524Z,1.65
2022-10-19T07:47:17.084Z,2.10
2022-10-19T07:49:48.533Z,1.27
2022-10-19T07:52:19.090Z,2.00
2022-10-19T07:54:51.639Z,2.03
2022-10-19T07:57:24.325Z,1.80
2022-10-19T07:59:56.180Z,1.52
2022-10-19T08:02:30.904Z,1.70
2022-10-19T08:05:12.893Z,1.83
2022-10-19T08:07:45.327Z,1.63
2022-10-19T08:10:17.214Z,1.33
2022-10-19T08:12:47.834Z,1.65
2022-10-19T08:15:19.343Z,1.70
2022-10-19T08:17:50.905Z,2.03
2022-10-19T08:20:23.488Z,2.67
2022-10-19T08:22:58.883Z,1.88
2022-10-19T08:25:30.734Z,1.57
2022-10-19T08:28:03.201Z,1.60
2022-10-19T08:30:37.877Z,1.98
2022-10-19T08:33:10.358Z,1.65
2022-10-19T08:35:42.031Z,1.25
2022-10-19T08:38:13.805Z,2.13
2022-10-19T08:40:48.474Z,1.65
2022-10-19T08:43:25.847Z,1.70
2022-10-19T08:46:20.428Z,1.40
2022-10-19T08:48:52.631Z,1.52
2022-10-19T08:51:23.852Z,1.60
2022-10-19T08:54:00.064Z,1.58
2022-10-19T08:56:50.357Z,2.08
2022-10-19T08:59:25.908Z,1.80
2022-10-19T09:02:14.430Z,1.83
2022-10-19T09:05:04.028Z,1.50
2022-10-19T09:07:47.574Z,1.80
2022-10-19T09:10:26.546Z,1.90
2022-10-19T09:13:12.197Z,1.70
2022-10-19T09:15:47.255Z,2.33
2022-10-19T09:18:32.792Z,1.65
2022-10-19T09:21:17.031Z,2.22
2022-10-19T09:23:57.518Z,1.58
2022-10-19T09:26:32.936Z,2.03
2022-10-19T09:29:18.005Z,2.53
2022-10-19T09:34:45.406Z,2.58
2022-10-19T09:37:24.753Z,4.53
2022-10-19T09:39:59.142Z,2.33
2022-10-19T09:42:38.880Z,2.45
2022-10-19T09:45:28.656Z,2.03
2022-10-19T09:48:08.658Z,1.92
2022-10-19T09:50:46.959Z,2.55
2022-10-19T09:53:24.964Z,2.50
2022-10-19T09:56:10.379Z,1.88
2022-10-19T09:58:54.987Z,1.95
2022-10-19T10:04:33.851Z,2.08
2022-10-19T10:07:06.333Z,2.00
2022-10-19T10:09:43.201Z,2.70
2022-10-19T10:12:17.158Z,1.73
2022-10-19T10:14:48.436Z,2.03
2022-10-19T10:17:25.132Z,1.90
2022-10-19T10:22:42.172Z,2.20
2022-10-19T10:25:22.779Z,2.85
2022-10-19T10:28:03.011Z,2.20
2022-10-19T10:30:39.953Z,2.20
2022-10-19T10:33:26.926Z,1.83
2022-10-19T10:36:12.218Z,2.30
2022-10-19T10:38:54.112Z,2.72
2022-10-19T10:41:26.325Z,2.10
2022-10-19T10:44:08.893Z,2.10
2022-10-19T10:47:00.844Z,2.17
2022-10-19T10:49:44.575Z,2.22
2022-10-19T10:52:19.998Z,2.50
2022-10-19T10:55:13.500Z,1.77
2022-10-19T10:57:53.979Z,2.15
2022-10-19T11:00:30.180Z,2.03
2022-10-19T11:03:24.435Z,2.10
2022-10-19T11:06:04.776Z,2.08
2022-10-19T11:08:58.971Z,1.98
2022-10-19T11:11:36.690Z,1.92
2022-10-19T11:14:25.340Z,2.05
2022-10-19T11:17:02.531Z,1.92
2022-10-19T11:19:37.380Z,2.50
2022-10-19T11:22:31.014Z,1.95
2022-10-19T11:25:08.825Z,2.00
2022-10-19T11:28:04.854Z,2.00
2022-10-19T11:30:50.734Z,1.90
2022-10-19T11:33:34.513Z,2.25
2022-10-19T11:36:28.667Z,2.05
2022-10-19T11:39:36.033Z,1.98
2022-10-19T11:42:24.683Z,1.88
2022-10-19T11:45:01.379Z,1.90
2022-10-19T11:47:39.531Z,1.67
2022-10-19T11:50:32.361Z,1.98
2022-10-19T11:53:16.665Z,2.28
2022-10-19T11:55:52.232Z,2.05
2022-10-19T12:02:08.624Z,1.90
2022-10-19T12:05:07.104Z,1.83
2022-10-19T12:07:47.671Z,1.90
2022-10-19T12:11:00.215Z,2.30
2022-10-19T12:13:45.743Z,2.53
2022-10-19T12:16:18.531Z,2.00
2022-10-19T12:19:02.966Z,1.88
2022-10-19T12:21:46.112Z,2.00
2022-10-19T12:24:23.019Z,1.90
2022-10-19T12:26:56.439Z,2.10
2022-10-19T12:29:39.984Z,2.70
2022-10-19T12:32:15.146Z,1.98
2022-10-19T12:35:05.412Z,2.65
2022-10-19T12:37:48.405Z,2.55
2022-10-19T12:40:31.473Z,2.97
2022-10-19T12:43:58.276Z,2.55
2022-10-19T12:46:53.826Z,3.10
2022-10-19T12:49:48.766Z,2.45
2022-10-19T12:52:47.281Z,2.97
2022-10-19T12:55:40.314Z,2.22
2022-10-19T12:58:55.559Z,2.47
2022-10-19T13:01:46.958Z,2.17
2022-10-19T13:04:39.920Z,2.55
2022-10-19T13:07:13.798Z,2.67
2022-10-19T13:09:51.369Z,2.22
2022-10-19T13:12:26.586Z,1.90
2022-10-19T13:14:59.762Z,3.03
2022-10-19T13:17:53.085Z,2.35
2022-10-19T13:20:26.856Z,1.83
2022-10-19T13:23:06.592Z,2.15
2022-10-19T13:25:44.509Z,1.98
2022-10-19T13:28:17.029Z,2.45
2022-10-19T13:30:47.567Z,1.98
2022-10-19T13:33:27.444Z,2.20
2022-10-19T13:36:04.519Z,2.60
2022-10-19T13:38:55.241Z,2.28
2022-10-19T13:41:41.291Z,2.72
2022-10-19T13:44:27.170Z,2.47
2022-10-19T13:47:24.987Z,2.30
2022-10-19T13:50:17.680Z,2.30
2022-10-19T13:53:07.501Z,2.28
2022-10-19T13:55:53.282Z,2.75
2022-10-19T13:58:42.021Z,2.17
2022-10-19T14:01:24.734Z,2.65
2022-10-19T14:04:08.263Z,2.25
2022-10-19T14:06:42.904Z,2.45
2022-10-19T14:09:34.998Z,2.10
2022-10-19T14:12:30.918Z,2.08
2022-10-19T14:15:03.110Z,2.45
2022-10-19T14:17:44.826Z,2.03
2022-10-19T14:20:38.552Z,3.10
2022-10-19T14:23:24.909Z,2.53
2022-10-19T14:26:24.181Z,2.08
2022-10-19T14:29:04.048Z,2.05
2022-10-19T14:31:43.749Z,2.67
2022-10-19T14:34:18.314Z,2.50
2022-10-19T14:36:51.217Z,1.92
2022-10-19T14:39:35.356Z,2.13
2022-10-19T14:42:12.149Z,2.47
2022-10-19T14:47:33.172Z,2.30
2022-10-19T14:50:04.669Z,2.80
2022-10-19T14:52:41.209Z,2.88
2022-10-19T14:55:17.963Z,2.45
2022-10-19T14:57:51.873Z,2.83
2022-10-19T15:03:00.004Z,2.25
2022-10-19T15:05:35.437Z,2.25
2022-10-19T15:08:34.383Z,2.50
2022-10-19T15:11:05.176Z,2.20
2022-10-19T15:13:42.842Z,3.50
2022-10-19T15:16:36.206Z,2.40
2022-10-19T15:19:17.462Z,2.33
2022-10-19T15:21:51.447Z,2.63
2022-10-19T15:24:29.889Z,2.58
2022-10-19T15:27:09.016Z,2.13
2022-10-19T15:29:41.538Z,2.17
2022-10-19T15:32:22.873Z,2.70
2022-10-19T15:34:55.805Z,2.40
2022-10-19T15:37:28.437Z,2.30
2022-10-19T15:39:58.722Z,2.30
2022-10-19T15:42:51.757Z,2.22
2022-10-19T15:45:35.727Z,2.55
2022-10-19T15:48:18.302Z,2.90
2022-10-19T15:50:51.608Z,2.30
2022-10-19T15:53:23.916Z,2.85
2022-10-19T15:55:54.607Z,1.90
2022-10-19T15:58:24.902Z,2.05
2022-10-19T16:00:55.502Z,2.78
2022-10-19T16:03:25.663Z,2.25
2022-10-19T16:05:56.449Z,2.25
2022-10-19T16:08:27.064Z,1.80
2022-10-19T16:10:57.955Z,2.10
2022-10-19T16:13:28.580Z,2.05
2022-10-19T16:16:11.395Z,2.97
2022-10-19T16:18:42.002Z,2.63
2022-10-19T16:21:12.688Z,3.63
2022-10-19T16:23:42.999Z,2.40
2022-10-19T16:26:18.226Z,2.40
2022-10-19T16:28:50.247Z,2.65
2022-10-19T16:31:21.483Z,2.70
2022-10-19T16:33:52.156Z,2.13
2022-10-19T16:36:22.983Z,2.45
2022-10-19T16:38:53.283Z,1.90
2022-10-19T16:41:24.479Z,2.38
2022-10-19T16:43:59.489Z,1.90
2022-10-19T16:46:30.603Z,1.85
2022-10-19T16:49:01.264Z,2.28
2022-10-19T16:51:42.723Z,1.90
2022-10-19T16:54:14.419Z,2.40
2022-10-19T16:56:50.022Z,2.63
2022-10-19T16:59:22.036Z,2.13
2022-10-19T17:01:53.973Z,3.35
2022-10-19T17:04:24.457Z,2.42
2022-10-19T17:06:54.935Z,2.92
2022-10-19T17:09:42.875Z,2.15
2022-10-19T17:12:14.944Z,2.55
2022-10-19T17:14:45.508Z,2.35
2022-10-19T17:17:15.728Z,2.53
2022-10-19T17:19:45.969Z,2.50
2022-10-19T17:22:16.277Z,2.42
2022-10-19T17:24:48.285Z,2.88
2022-10-19T17:27:19.055Z,2.35
2022-10-19T17:29:49.974Z,3.22
2022-10-19T17:32:20.413Z,2.30
2022-10-19T17:34:50.632Z,2.95
2022-10-19T17:37:20.997Z,2.60
2022-10-19T17:39:53.651Z,2.30
2022-10-19T17:42:24.321Z,2.50
2022-10-19T17:44:56.866Z,2.30
2022-10-19T17:47:27.839Z,2.28
2022-10-19T17:49:59.593Z,2.35
2022-10-19T17:52:30.487Z,2.30
2022-10-19T17:55:17.984Z,2.20
2022-10-19T17:57:50.487Z,2.58
2022-10-19T18:00:21.173Z,3.00
2022-10-19T18:02:51.555Z,2.10
2022-10-19T18:05:21.856Z,2.15
2022-10-19T18:07:53.020Z,2.22
2022-10-19T18:10:24.309Z,3.05
2022-10-19T18:12:54.725Z,2.67
2022-10-19T18:15:25.154Z,2.70
2022-10-19T18:17:55.500Z,3.00
2022-10-19T18:20:25.645Z,2.05
2022-10-19T18:22:56.072Z,2.55
2022-10-19T18:25:49.202Z,2.88
2022-10-19T18:28:16.515Z,3.08
2022-10-19T18:30:47.488Z,2.60
2022-10-19T18:33:18.235Z,2.42
2022-10-19T18:35:49.752Z,3.00
2022-10-19T18:38:20.388Z,2.92
2022-10-19T18:40:52.031Z,2.50
2022-10-19T18:43:24.631Z,2.40
2022-10-19T18:45:56.779Z,3.15
2022-10-19T18:48:28.622Z,2.95
2022-10-19T18:51:01.059Z,2.30
2022-10-19T18:53:32.987Z,2.38
2022-10-19T18:56:05.984Z,3.72
2022-10-19T18:58:38.770Z,2.30
2022-10-19T19:01:12.343Z,2.50
2022-10-19T19:03:49.331Z,2.30
2022-10-19T19:06:26.339Z,2.30
2022-10-19T19:09:02.242Z,2.78
2022-10-19T19:11:39.672Z,2.23
2022-10-19T19:14:24.186Z,2.40
2022-10-19T19:16:54.416Z,2.50
2022-10-19T19:19:27.412Z,2.60
2022-10-19T19:21:58.949Z,2.53
2022-10-19T19:24:33.930Z,2.80
2022-10-19T19:27:06.761Z,3.33
2022-10-19T19:29:38.279Z,2.60
2022-10-19T19:32:08.649Z,2.35
2022-10-19T19:34:39.225Z,2.30
2022-10-19T19:37:11.222Z,2.63
2022-10-19T19:39:42.619Z,2.30
2022-10-19T19:42:12.793Z,2.35
2022-10-19T19:44:44.171Z,2.58
2022-10-19T19:47:15.433Z,2.50
2022-10-19T19:49:46.203Z,2.75
2022-10-19T19:52:17.837Z,3.13
2022-10-19T19:54:48.053Z,2.50
2022-10-19T19:57:18.769Z,2.33
2022-10-19T19:59:49.148Z,3.28
2022-10-19T20:02:19.816Z,2.60
2022-10-19T20:04:50.035Z,2.65
2022-10-19T20:07:22.230Z,2.60
2022-10-19T20:09:55.983Z,2.38
2022-10-19T20:12:28.269Z,2.35
2022-10-19T20:14:58.876Z,2.70
2022-10-19T20:17:29.560Z,2.97
2022-10-19T20:20:00.153Z,2.35
2022-10-19T20:22:30.375Z,3.55
2022-10-19T20:25:00.905Z,2.60
2022-10-19T20:27:31.407Z,3.05
2022-10-19T20:30:01.552Z,2.60
2022-10-19T20:32:32.811Z,2.58
2022-10-19T20:35:05.957Z,2.70
2022-10-19T20:37:37.153Z,3.20
2022-10-19T20:40:11.020Z,2.65
2022-10-19T20:42:42.065Z,2.67
2022-10-19T20:45:14.736Z,2.70
2022-10-19T20:47:44.898Z,2.58
2022-10-19T20:50:17.070Z,2.80
2022-10-19T20:52:50.923Z,3.13
2022-10-19T20:55:23.649Z,3.08
2022-10-19T20:57:53.770Z,2.60
2022-10-19T21:00:23.929Z,2.78
2022-10-19T21:02:55.210Z,2.70
2022-10-19T21:05:25.352Z,3.03
2022-10-19T21:07:55.893Z,2.97
2022-10-19T21:10:26.128Z,2.85
2022-10-19T21:12:56.328Z,3.03
2022-10-19T21:15:27.859Z,3.28
2022-10-19T21:17:58.427Z,2.70
2022-10-19T21:20:32.567Z,2.25
2022-10-19T21:23:03.270Z,2.70
2022-10-19T21:25:35.455Z,2.00
2022-10-19T21:28:06.925Z,1.70
2022-10-19T21:30:38.907Z,2.15
2022-10-19T21:33:09.356Z,2.08
2022-10-19T21:35:39.819Z,1.90
2022-10-19T21:38:11.566Z,1.50
2022-10-19T21:40:42.394Z,1.58
2022-10-19T21:43:13.073Z,2.05
2022-10-19T21:45:43.291Z,2.10
2022-10-19T21:48:14.208Z,1.73
2022-10-19T21:50:45.075Z,1.98
2022-10-19T21:53:15.720Z,1.98
2022-10-19T21:55:46.545Z,1.50
2022-10-19T21:58:17.509Z,2.10
2022-10-19T22:00:49.068Z,1.60
2022-10-19T22:03:21.205Z,1.98
2022-10-19T22:05:55.243Z,1.50
2022-10-19T22:08:26.198Z,1.48
2022-10-19T22:10:56.506Z,1.50
2022-10-19T22:13:27.134Z,1.55
2022-10-19T22:15:57.705Z,1.30
2022-10-19T22:18:28.268Z,1.55
2022-10-19T22:21:22.673Z,1.00
2022-10-19T22:24:04.761Z,1.20
2022-10-19T22:26:47.723Z,1.33
2022-10-19T22:29:17.927Z,1.10
2022-10-19T22:31:48.322Z,1.30
2022-10-19T22:34:20.749Z,1.25
2022-10-19T22:36:51.318Z,1.30
2022-10-19T22:39:22.653Z,1.08
2022-10-19T22:42:50.020Z,1.00
2022-10-19T22:45:38.995Z,0.98
2022-10-19T22:48:54.289Z,1.42
2022-10-19T22:52:01.025Z,1.05
2022-10-19T22:54:31.960Z,0.90
2022-10-19T22:57:02.247Z,1.70
2022-10-19T22:59:35.424Z,1.20
2022-10-19T23:02:06.080Z,1.30
2022-10-19T23:04:36.495Z,1.15
2022-10-19T23:12:13.162Z,1.00
2022-10-19T23:14:44.065Z,1.02
2022-10-19T23:17:14.736Z,1.10
2022-10-19T23:19:45.854Z,1.33
2022-10-19T23:22:16.196Z,1.52
2022-10-19T23:24:46.343Z,1.42
2022-10-19T23:27:17.103Z,1.02
2022-10-19T23:29:47.746Z,1.85
2022-10-19T23:32:17.920Z,1.33
2022-10-19T23:34:50.361Z,1.75
2022-10-19T23:37:21.253Z,1.40
2022-10-19T23:39:51.892Z,1.58
2022-10-19T23:42:22.770Z,1.40
2022-10-19T23:44:54.944Z,1.30
2022-10-19T23:47:25.203Z,1.65
2022-10-19T23:49:55.519Z,1.75
2022-10-19T23:52:25.710Z,1.30
2022-10-19T23:54:55.833Z,1.38
2022-10-19T23:57:25.997Z,1.45
2022-10-19T23:59:56.169Z,1.50
